Time;durP1;ratioP1;P1;durP2;ratioP2;P2;SDS_P1;SDS_P2;PMS_P1;PMS_P2;Temp;Humidity;BMP_temperature;BMP_pressure;BME280_temperature;BME280_humidity;BME280_pressure;Samples;Min_cycle;Max_cycle;Signal;HPM_P1;HPM_P2
2023/08/21 00:00:27;;;;;;;3.88;3.45;;;;;;;19.35;58.21;96578.00;5056705;28;20055;-68
2023/08/21 00:02:54;;;;;;;12.27;4.35;;;;;;;19.35;58.86;96575.38;5057004;28;20453;-68
2023/08/21 00:05:23;;;;;;;3.95;3.20;;;;;;;19.34;59.01;96571.00;5056879;28;20410;-68
2023/08/21 00:07:50;;;;;;;6.35;3.13;;;;;;;19.22;58.51;96578.03;5056447;28;20148;-68
2023/08/21 00:10:18;;;;;;;8.55;3.70;;;;;;;19.22;59.33;96575.38;5056459;28;20106;-68
2023/08/21 00:12:45;;;;;;;7.63;3.45;;;;;;;19.22;59.11;96573.59;5056271;28;20049;-69
2023/08/21 00:15:12;;;;;;;5.68;4.05;;;;;;;19.21;59.13;96579.00;5056317;28;20140;-69
2023/08/21 00:17:39;;;;;;;4.10;3.67;;;;;;;19.10;58.43;96574.47;5056485;28;20045;-68
2023/08/21 00:20:09;;;;;;;5.88;4.03;;;;;;;19.07;59.38;96580.81;5056016;28;20091;-68
2023/08/21 00:22:37;;;;;;;3.70;3.17;;;;;;;19.11;59.69;96581.50;5056375;28;20131;-68
2023/08/21 00:25:05;;;;;;;6.20;3.25;;;;;;;19.10;59.83;96579.78;5056167;28;20127;-69
2023/08/21 00:27:32;;;;;;;5.93;3.42;;;;;;;19.09;59.64;96586.03;5056043;28;20060;-68
2023/08/21 00:30:01;;;;;;;6.13;3.70;;;;;;;19.06;59.40;96577.31;5056160;28;20131;-68
2023/08/21 00:32:28;;;;;;;5.63;3.60;;;;;;;19.09;59.95;96586.91;5055956;28;20084;-68
2023/08/21 00:34:55;;;;;;;6.53;3.40;;;;;;;19.08;59.88;96581.72;5055914;28;20491;-68
2023/08/21 00:37:22;;;;;;;5.10;3.67;;;;;;;19.02;59.33;96583.81;5055911;28;20513;-68
2023/08/21 00:39:51;;;;;;;7.45;3.67;;;;;;;19.02;59.55;96581.16;5056067;28;20070;-68
2023/08/21 00:42:18;;;;;;;7.60;4.05;;;;;;;19.02;59.80;96580.31;5055886;28;20103;-68
2023/08/21 00:44:45;;;;;;;8.68;3.67;;;;;;;19.05;59.67;96580.94;5055895;28;20563;-68
2023/08/21 00:47:11;;;;;;;6.25;3.53;;;;;;;19.06;59.83;96579.13;5055857;28;20147;-68
2023/08/21 00:49:39;;;;;;;4.22;3.50;;;;;;;19.02;58.92;96575.03;5055975;28;20122;-68
2023/08/21 00:52:09;;;;;;;6.80;3.08;;;;;;;19.03;59.29;96574.88;5055784;28;20041;-68
2023/08/21 00:54:36;;;;;;;4.57;3.72;;;;;;;19.05;59.60;96572.97;5055557;28;20048;-68
2023/08/21 00:57:05;;;;;;;5.72;3.38;;;;;;;19.10;59.65;96574.47;5055633;28;20053;-68
2023/08/21 00:59:32;;;;;;;8.15;3.50;;;;;;;19.10;59.69;96572.69;5055477;28;20419;-68
2023/08/21 01:01:59;;;;;;;5.03;3.35;;;;;;;19.12;59.88;96573.44;5055458;28;20394;-68
2023/08/21 01:04:26;;;;;;;6.00;3.33;;;;;;;19.11;60.27;96574.38;5055399;28;20049;-68
2023/08/21 01:06:53;;;;;;;5.70;3.85;;;;;;;19.12;59.60;96573.44;5055336;28;20449;-68
2023/08/21 01:09:28;;;;;;;9.25;3.88;;;;;;;19.12;59.60;96573.44;5055155;28;20049;-69
2023/08/21 01:12:05;;;;;;;4.57;3.58;;;;;;;19.14;59.53;96573.31;5054751;28;20041;-69
2023/08/21 01:14:42;;;;;;;6.97;3.58;;;;;;;19.19;59.84;96577.31;5055332;28;20048;-69
2023/08/21 01:17:12;;;;;;;8.25;3.70;;;;;;;19.24;59.48;96570.84;5055511;28;20123;-69
2023/08/21 01:19:42;;;;;;;6.00;3.63;;;;;;;19.26;59.55;96576.88;5055063;28;20063;-68
2023/08/21 01:22:09;;;;;;;6.87;3.80;;;;;;;19.24;59.77;96574.34;5055144;28;20053;-68
2023/08/21 01:24:37;;;;;;;6.93;3.70;;;;;;;19.24;59.96;96573.50;5055101;28;20060;-68
2023/08/21 01:27:04;;;;;;;4.05;3.50;;;;;;;19.23;59.82;96577.94;5055015;28;20045;-68
2023/08/21 01:29:32;;;;;;;5.88;3.80;;;;;;;19.24;60.14;96570.84;5055034;28;20088;-68
2023/08/21 01:32:08;;;;;;;6.55;3.65;;;;;;;19.23;59.79;96572.63;5055000;28;20080;-69
2023/08/21 01:34:36;;;;;;;6.53;4.20;;;;;;;19.29;60.17;96573.97;5055024;28;20049;-69
2023/08/21 01:37:04;;;;;;;7.72;3.75;;;;;;;19.34;59.46;96574.50;5054849;28;20059;-69
2023/08/21 01:39:31;;;;;;;8.55;3.67;;;;;;;19.37;59.27;96578.72;5055083;28;20059;-69
2023/08/21 01:42:00;;;;;;;7.43;3.85;;;;;;;19.36;58.46;96575.25;5054983;28;20052;-69
2023/08/21 01:44:27;;;;;;;6.63;3.30;;;;;;;19.32;59.41;96577.28;5054803;28;20487;-69
2023/08/21 01:46:54;;;;;;;11.45;3.60;;;;;;;19.38;58.71;96575.97;5054464;28;20049;-69
2023/08/21 01:49:21;;;;;;;7.18;3.40;;;;;;;19.45;57.37;96574.56;5054758;28;20073;-69
2023/08/21 01:51:48;;;;;;;7.63;3.58;;;;;;;19.53;57.86;96576.66;5054630;28;20045;-69
2023/08/21 01:54:15;;;;;;;6.80;3.83;;;;;;;19.36;58.67;96582.34;5054454;28;20135;-69
2023/08/21 01:56:42;;;;;;;6.30;3.42;;;;;;;19.37;58.51;96576.06;5054451;28;20053;-68
2023/08/21 01:59:10;;;;;;;9.68;3.60;;;;;;;19.40;58.17;96583.81;5054430;28;20053;-68
2023/08/21 02:01:37;;;;;;;10.45;3.30;;;;;;;19.43;58.59;96580.94;5054635;28;20528;-69
2023/08/21 02:04:04;;;;;;;5.50;3.92;;;;;;;19.44;58.47;96583.47;5054262;28;20056;-68
2023/08/21 02:06:31;;;;;;;5.55;3.53;;;;;;;19.48;58.80;96584.09;5054482;28;20398;-68
2023/08/21 02:09:00;;;;;;;5.47;3.60;;;;;;;19.42;58.83;96580.06;5054151;28;20060;-68
2023/08/21 02:11:27;;;;;;;6.50;4.00;;;;;;;19.47;58.91;96584.22;5054218;28;20049;-69
2023/08/21 02:13:54;;;;;;;3.58;3.28;;;;;;;19.47;58.34;96592.19;5054406;28;20052;-69
2023/08/21 02:16:26;;;;;;;6.13;4.13;;;;;;;19.46;58.28;96588.66;5054115;28;20491;-69
2023/08/21 02:18:53;;;;;;;7.95;4.07;;;;;;;19.54;58.29;96580.97;5054113;28;20049;-69
2023/08/21 02:21:20;;;;;;;4.68;3.78;;;;;;;19.53;58.55;96586.41;5053770;28;20083;-69
2023/08/21 02:23:47;;;;;;;6.90;3.78;;;;;;;19.50;58.12;96590.13;5053966;28;20049;-68
2023/08/21 02:26:14;;;;;;;9.82;3.40;;;;;;;19.54;58.59;96580.16;5054040;28;20048;-68
2023/08/21 02:28:43;;;;;;;7.95;3.50;;;;;;;19.56;57.28;96581.72;5053856;28;20094;-68
2023/08/21 02:31:10;;;;;;;3.97;3.35;;;;;;;19.60;58.37;96576.19;5053978;28;20045;-68
2023/08/21 02:33:39;;;;;;;8.15;3.40;;;;;;;19.55;57.73;96582.69;5053728;28;20044;-69
2023/08/21 02:36:07;;;;;;;15.48;3.55;;;;;;;19.59;57.57;96583.28;5053700;28;20504;-68
2023/08/21 02:38:35;;;;;;;8.55;4.18;;;;;;;19.61;57.43;96578.72;5053619;28;20041;-69
2023/08/21 02:41:02;;;;;;;9.75;3.83;;;;;;;19.60;57.43;96578.84;5053650;28;20143;-69
2023/08/21 02:43:29;;;;;;;6.70;3.47;;;;;;;19.60;57.07;96585.00;5053685;28;20136;-69
2023/08/21 02:45:56;;;;;;;7.43;3.47;;;;;;;19.62;56.86;96575.13;5053765;28;20045;-69
2023/08/21 02:48:22;;;;;;;7.60;4.05;;;;;;;19.66;57.27;96579.22;5053355;28;20049;-69
2023/08/21 02:50:51;;;;;;;7.68;3.90;;;;;;;19.65;56.80;96574.03;5053570;28;20052;-69
2023/08/21 02:53:18;;;;;;;7.50;3.15;;;;;;;19.67;57.25;96578.28;5053460;28;20081;-69
2023/08/21 02:55:45;;;;;;;7.57;3.40;;;;;;;19.70;56.84;96575.41;5053453;28;20045;-69
2023/08/21 02:58:12;;;;;;;8.85;4.03;;;;;;;19.74;56.78;96576.00;5053294;28;20139;-69
2023/08/21 03:00:39;;;;;;;6.82;3.80;;;;;;;19.78;55.14;96580.09;5053307;28;20126;-69
2023/08/21 03:03:06;;;;;;;10.77;3.75;;;;;;;19.88;55.42;96577.63;5053538;28;20095;-69
2023/08/21 03:05:33;;;;;;;7.53;3.53;;;;;;;19.94;55.74;96571.88;5053300;28;20197;-68
2023/08/21 03:08:01;;;;;;;8.50;3.63;;;;;;;19.94;56.54;96582.47;5053200;28;20063;-69
2023/08/21 03:10:29;;;;;;;8.38;3.80;;;;;;;19.98;56.30;96577.75;5053297;28;20395;-69
2023/08/21 03:12:56;;;;;;;7.50;3.83;;;;;;;19.95;54.88;96581.50;5053274;28;20044;-69
2023/08/21 03:15:23;;;;;;;6.68;3.95;;;;;;;20.04;54.68;96580.00;5053084;28;20402;-69
2023/08/21 03:17:50;;;;;;;7.38;3.80;;;;;;;20.14;54.67;96581.94;5053058;28;20560;-69
2023/08/21 03:20:18;;;;;;;9.60;4.35;;;;;;;20.19;55.31;96580.63;5053069;28;20049;-69
2023/08/21 03:22:45;;;;;;;6.43;3.67;;;;;;;20.22;55.01;96576.88;5053009;28;20045;-69
2023/08/21 03:25:13;;;;;;;5.32;3.53;;;;;;;20.24;55.00;96580.28;5053029;28;20045;-69
2023/08/21 03:27:44;;;;;;;5.45;3.30;;;;;;;20.30;54.77;96585.13;5052939;28;20136;-69
2023/08/21 03:30:14;;;;;;;7.05;3.92;;;;;;;20.36;54.12;96586.47;5053048;28;20047;-69
2023/08/21 03:32:41;;;;;;;7.53;4.50;;;;;;;20.40;54.45;96587.03;5052646;28;20056;-69
2023/08/21 03:35:09;;;;;;;11.68;3.95;;;;;;;20.43;53.60;96577.03;5052808;28;20052;-69
2023/08/21 03:37:36;;;;;;;10.32;4.88;;;;;;;20.43;53.78;96578.84;5052751;28;20084;-69
2023/08/21 03:40:04;;;;;;;8.43;5.15;;;;;;;20.41;54.38;96586.94;5052809;28;20517;-69
2023/08/21 03:42:32;;;;;;;7.50;4.97;;;;;;;20.42;54.01;96583.31;5053003;28;20122;-69
2023/08/21 03:44:59;;;;;;;7.75;3.42;;;;;;;20.44;53.86;96585.88;5052875;28;20051;-69
2023/08/21 03:47:26;;;;;;;13.27;4.10;;;;;;;20.54;54.60;96583.31;5052738;28;20102;-69
2023/08/21 03:49:53;;;;;;;7.45;3.42;;;;;;;20.55;54.18;96585.00;5052751;28;20549;-69
2023/08/21 03:52:20;;;;;;;9.68;3.63;;;;;;;20.67;53.32;96580.53;5052792;28;20132;-69
2023/08/21 03:54:47;;;;;;;5.97;3.72;;;;;;;20.78;53.44;96585.03;5052690;28;20072;-69
2023/08/21 03:57:14;;;;;;;7.65;4.15;;;;;;;20.92;53.13;96578.66;5052762;28;20075;-69
2023/08/21 03:59:43;;;;;;;7.03;3.80;;;;;;;21.04;52.05;96582.16;5052706;28;20084;-69
2023/08/21 04:02:10;;;;;;;6.97;3.90;;;;;;;21.27;51.69;96582.94;5052615;28;20106;-69
2023/08/21 04:04:37;;;;;;;7.85;4.07;;;;;;;21.46;51.83;96587.59;5052650;28;20045;-69
2023/08/21 04:07:04;;;;;;;6.68;3.95;;;;;;;21.68;51.33;96587.66;5052643;28;20056;-69
2023/08/21 04:09:31;;;;;;;8.88;3.70;;;;;;;21.91;49.98;96591.06;5052686;28;20044;-69
2023/08/21 04:11:58;;;;;;;9.18;3.70;;;;;;;22.24;48.92;96595.53;5052568;28;20106;-69
2023/08/21 04:14:25;;;;;;;7.03;3.60;;;;;;;22.60;48.64;96598.69;5052489;28;20056;-69
2023/08/21 04:16:54;;;;;;;5.13;3.83;;;;;;;23.04;47.74;96597.59;5052401;28;20045;-69
2023/08/21 04:19:21;;;;;;;5.05;3.58;;;;;;;23.40;46.90;96595.34;5052319;28;20491;-69
2023/08/21 04:21:48;;;;;;;9.57;4.03;;;;;;;23.79;45.79;96607.03;5052481;28;20450;-69
2023/08/21 04:24:15;;;;;;;9.88;3.70;;;;;;;24.11;45.35;96601.41;5052645;28;20053;-68
2023/08/21 04:26:42;;;;;;;5.38;3.17;;;;;;;24.45;46.31;96601.94;5052532;28;20562;-69
2023/08/21 04:29:09;;;;;;;11.07;3.70;;;;;;;24.80;44.55;96597.72;5052414;28;20106;-69
2023/08/21 04:31:37;;;;;;;9.43;3.50;;;;;;;25.23;45.37;96606.16;5052443;28;20049;-69
2023/08/21 04:34:06;;;;;;;8.48;3.97;;;;;;;25.68;46.28;96605.47;5052461;28;20053;-69
2023/08/21 04:36:33;;;;;;;6.57;3.60;;;;;;;26.05;45.30;96596.44;5052325;28;20051;-69
2023/08/21 04:39:00;;;;;;;6.97;3.53;;;;;;;26.40;45.48;96601.94;5052424;28;20060;-69
2023/08/21 04:41:27;;;;;;;8.18;3.72;;;;;;;26.69;44.71;96607.94;5052380;28;20092;-69
2023/08/21 04:43:54;;;;;;;9.18;3.38;;;;;;;27.04;42.10;96600.78;5052264;28;20140;-69
2023/08/21 04:46:21;;;;;;;9.35;3.95;;;;;;;27.35;41.14;96602.91;5054370;28;20045;-69
2023/08/21 04:48:48;;;;;;;13.25;3.88;;;;;;;27.64;42.26;96606.19;5055764;28;20490;-69
2023/08/21 04:51:17;;;;;;;14.50;3.78;;;;;;;27.88;42.83;96615.31;5055824;28;20049;-69
2023/08/21 04:53:44;;;;;;;16.25;3.47;;;;;;;28.22;42.39;96602.69;5055781;28;20049;-69
2023/08/21 04:56:11;;;;;;;5.70;3.45;;;;;;;28.47;36.46;96614.31;5055824;28;20490;-69
2023/08/21 04:58:38;;;;;;;6.97;3.42;;;;;;;28.68;37.33;96615.59;5055658;28;20045;-69
2023/08/21 05:01:06;;;;;;;5.07;3.08;;;;;;;29.06;35.88;96609.66;5055493;28;20048;-69
2023/08/21 05:03:33;;;;;;;6.07;3.30;;;;;;;29.34;33.15;96602.94;5055554;28;20132;-69
2023/08/21 05:06:00;;;;;;;14.63;3.50;;;;;;;29.54;33.90;96613.28;5055468;28;20044;-69
2023/08/21 05:08:28;;;;;;;3.85;3.20;;;;;;;29.49;34.29;96609.28;5055378;28;20127;-69
2023/08/21 05:10:56;;;;;;;8.43;3.55;;;;;;;29.57;35.42;96612.97;5055423;28;20045;-69
2023/08/21 05:13:25;;;;;;;23.20;3.60;;;;;;;29.63;32.76;96614.94;5055357;28;20056;-69
2023/08/21 05:15:56;;;;;;;8.00;3.05;;;;;;;29.79;33.66;96615.88;5055295;28;20565;-69
2023/08/21 05:18:23;;;;;;;5.30;3.65;;;;;;;29.92;33.37;96610.72;5055205;28;20490;-69
2023/08/21 05:20:51;;;;;;;7.80;3.40;;;;;;;30.17;33.57;96615.94;5055046;28;20054;-69
2023/08/21 05:23:18;;;;;;;9.38;3.45;;;;;;;30.47;33.39;96621.41;5055281;28;20479;-69
2023/08/21 05:25:50;;;;;;;10.13;3.50;;;;;;;30.67;31.47;96618.16;5055277;28;20163;-69
2023/08/21 05:28:17;;;;;;;7.68;3.42;;;;;;;30.97;32.43;96612.00;5055059;28;20110;-69
2023/08/21 05:30:44;;;;;;;8.27;3.63;;;;;;;31.14;31.53;96618.88;5055072;28;20056;-69
2023/08/21 05:33:11;;;;;;;8.25;3.60;;;;;;;31.31;30.79;96613.25;5055169;28;20107;-69
2023/08/21 05:35:38;;;;;;;6.75;3.47;;;;;;;31.30;30.50;96619.66;5055077;28;20103;-69
2023/08/21 05:38:05;;;;;;;8.63;3.40;;;;;;;31.45;30.51;96616.16;5054942;28;20045;-69
2023/08/21 05:40:32;;;;;;;9.88;3.40;;;;;;;31.74;30.23;96627.91;5054981;28;20133;-69
2023/08/21 05:43:01;;;;;;;4.85;3.58;;;;;;;31.90;30.49;96624.09;5055098;28;20444;-69
2023/08/21 05:45:28;;;;;;;6.15;3.22;;;;;;;31.87;30.71;96624.50;5054917;28;20055;-69
2023/08/21 05:47:56;;;;;;;8.23;3.47;;;;;;;32.02;29.65;96625.31;5054741;28;20049;-69
2023/08/21 05:50:23;;;;;;;7.30;3.17;;;;;;;32.17;31.28;96618.16;5054733;28;20053;-68
2023/08/21 05:52:50;;;;;;;6.70;3.40;;;;;;;32.40;30.51;96626.06;5054715;28;20048;-69
2023/08/21 05:55:17;;;;;;;9.50;3.10;;;;;;;32.60;29.19;96628.94;5054821;28;20483;-69
2023/08/21 05:57:44;;;;;;;11.02;3.50;;;;;;;32.78;30.03;96617.59;5054294;28;20076;-69
2023/08/21 06:00:15;;;;;;;9.02;3.55;;;;;;;32.99;30.17;96623.97;5054366;28;20450;-68
2023/08/21 06:02:42;;;;;;;5.65;3.50;;;;;;;33.14;29.98;96625.78;5054407;28;20406;-69
2023/08/21 06:05:10;;;;;;;8.35;3.58;;;;;;;33.35;28.36;96623.97;5054480;28;20130;-69
2023/08/21 06:07:37;;;;;;;9.23;3.85;;;;;;;33.51;28.58;96628.19;5054414;28;20080;-68
2023/08/21 06:10:04;;;;;;;7.82;3.45;;;;;;;33.67;28.53;96618.09;5054126;28;20052;-69
2023/08/21 06:12:31;;;;;;;8.32;3.63;;;;;;;33.78;28.53;96623.75;5054244;28;20063;-69
2023/08/21 06:14:58;;;;;;;6.20;3.60;;;;;;;33.87;28.58;96632.53;5054655;28;20049;-68
2023/08/21 06:17:28;;;;;;;4.47;3.67;;;;;;;33.85;27.45;96625.59;5054236;28;20120;-68
2023/08/21 06:19:55;;;;;;;6.38;3.63;;;;;;;33.76;28.41;96635.81;5053880;28;20099;-68
2023/08/21 06:22:23;;;;;;;4.03;3.63;;;;;;;33.90;28.58;96625.84;5054114;28;20049;-69
2023/08/21 06:24:50;;;;;;;7.63;3.75;;;;;;;34.09;27.70;96635.03;5054109;28;20103;-69
2023/08/21 06:27:17;;;;;;;8.38;4.07;;;;;;;34.02;27.94;96635.06;5054134;28;20057;-69
2023/08/21 06:29:44;;;;;;;13.60;4.68;;;;;;;33.99;28.44;96637.31;5053843;28;20106;-68
2023/08/21 06:32:11;;;;;;;5.55;3.72;;;;;;;34.01;27.01;96641.50;5053908;28;20072;-68
2023/08/21 06:34:39;;;;;;;10.27;4.07;;;;;;;33.87;28.35;96643.38;5053849;28;20040;-68
2023/08/21 06:37:07;;;;;;;7.57;3.47;;;;;;;34.13;28.70;96640.94;5053975;28;20136;-69
2023/08/21 06:39:35;;;;;;;5.75;3.35;;;;;;;34.23;27.24;96637.81;5053751;28;20486;-69
2023/08/21 06:42:02;;;;;;;6.10;3.55;;;;;;;34.31;27.56;96639.47;5053794;28;20483;-68
2023/08/21 06:44:29;;;;;;;7.22;3.75;;;;;;;34.41;27.64;96648.84;5053625;28;20403;-68
2023/08/21 06:46:56;;;;;;;5.82;3.88;;;;;;;34.70;27.65;96647.84;5053604;28;20156;-68
2023/08/21 06:49:23;;;;;;;5.10;3.80;;;;;;;35.02;27.70;96650.72;5053806;28;20048;-68
2023/08/21 06:51:52;;;;;;;5.60;3.63;;;;;;;35.18;26.13;96649.44;5053663;28;20056;-68
2023/08/21 06:54:19;;;;;;;7.65;3.50;;;;;;;35.39;27.11;96653.78;5053630;28;20049;-68
2023/08/21 06:56:46;;;;;;;6.00;3.88;;;;;;;35.37;26.67;96658.59;5053437;28;20513;-68
2023/08/21 06:59:13;;;;;;;9.13;4.03;;;;;;;35.27;27.07;96659.03;5053335;28;20391;-68
2023/08/21 07:01:40;;;;;;;6.30;3.92;;;;;;;34.85;26.31;96658.50;5053352;28;20099;-68
2023/08/21 07:04:07;;;;;;;11.88;3.60;;;;;;;34.83;27.89;96656.00;5053535;28;20053;-68
2023/08/21 07:06:34;;;;;;;11.77;3.50;;;;;;;34.76;27.77;96655.16;5053337;28;20049;-68
2023/08/21 07:09:03;;;;;;;6.13;4.03;;;;;;;34.97;27.09;96653.25;5052397;28;20056;-68
2023/08/21 07:11:31;;;;;;;7.22;3.60;;;;;;;35.07;25.86;96653.66;5053273;28;20407;-68
2023/08/21 07:13:58;;;;;;;8.10;4.25;;;;;;;34.54;26.86;96661.63;5053198;28;20051;-68
2023/08/21 07:16:26;;;;;;;8.43;3.97;;;;;;;34.71;26.76;96652.22;5053189;28;20048;-68
2023/08/21 07:18:53;;;;;;;8.73;3.65;;;;;;;34.59;26.67;96652.84;5053138;28;20484;-68
2023/08/21 07:21:20;;;;;;;6.25;4.10;;;;;;;34.44;27.37;96655.78;5052801;28;20057;-68
2023/08/21 07:23:47;;;;;;;11.02;3.95;;;;;;;34.35;26.73;96647.00;5053253;28;20456;-68
2023/08/21 07:26:16;;;;;;;7.50;3.88;;;;;;;34.31;26.88;96659.28;5053177;28;20048;-68
2023/08/21 07:28:43;;;;;;;3.95;2.92;;;;;;;34.04;26.95;96654.66;5052971;28;20525;-68
2023/08/21 07:31:10;;;;;;;10.27;3.72;;;;;;;34.17;28.10;96655.75;5053161;28;20133;-67
2023/08/21 07:33:37;;;;;;;5.60;3.30;;;;;;;34.28;27.05;96649.69;5053177;28;20132;-68
2023/08/21 07:36:06;;;;;;;12.20;3.83;;;;;;;34.52;27.33;96660.97;5052922;28;20053;-68
2023/08/21 07:38:33;;;;;;;10.30;3.42;;;;;;;34.75;26.83;96658.91;5052900;28;20045;-68
2023/08/21 07:41:05;;;;;;;6.15;4.07;;;;;;;34.97;26.47;96650.53;5052824;28;20085;-68
2023/08/21 07:43:34;;;;;;;5.85;3.60;;;;;;;34.76;26.79;96657.88;5052777;28;20510;-68
2023/08/21 07:46:04;;;;;;;9.33;3.73;;;;;;;34.69;25.75;96648.88;5052943;28;20141;-68
2023/08/21 07:48:31;;;;;;;7.60;3.40;;;;;;;35.00;27.15;96666.41;5052729;28;20458;-68
2023/08/21 07:50:58;;;;;;;8.23;3.70;;;;;;;35.06;26.45;96653.84;5052715;28;20048;-68
2023/08/21 07:53:26;;;;;;;7.93;3.45;;;;;;;35.18;24.98;96645.91;5052705;28;20540;-68
2023/08/21 07:55:53;;;;;;;10.10;4.10;;;;;;;34.85;25.31;96656.59;5052700;28;20550;-67
2023/08/21 07:58:21;;;;;;;8.20;3.72;;;;;;;34.40;26.12;96649.91;5053073;28;20056;-68
2023/08/21 08:00:49;;;;;;;16.67;3.70;;;;;;;34.19;27.34;96641.97;5052720;28;20045;-67
2023/08/21 08:03:16;;;;;;;6.97;3.33;;;;;;;34.23;25.84;96645.94;5052692;28;20049;-68
2023/08/21 08:05:43;;;;;;;4.20;3.50;;;;;;;34.25;26.23;96643.88;5052739;28;20049;-68
2023/08/21 08:08:11;;;;;;;4.90;3.42;;;;;;;34.65;25.87;96643.91;5052563;28;20570;-68
2023/08/21 08:10:39;;;;;;;6.30;3.20;;;;;;;34.86;25.17;96643.84;5052542;28;20053;-68
2023/08/21 08:13:07;;;;;;;8.38;3.10;;;;;;;34.68;24.75;96639.91;5052562;28;20060;-67
2023/08/21 08:15:35;;;;;;;7.70;3.30;;;;;;;34.81;25.74;96638.22;5052529;28;20041;-68
2023/08/21 08:18:07;;;;;;;10.30;3.30;;;;;;;34.69;25.28;96641.59;5052614;28;20088;-68
2023/08/21 08:20:34;;;;;;;7.88;3.63;;;;;;;34.72;25.45;96638.44;5055081;28;20053;-68
2023/08/21 08:23:01;;;;;;;12.00;3.67;;;;;;;34.98;25.83;96634.03;5056643;28;20072;-67
2023/08/21 08:25:28;;;;;;;13.45;3.75;;;;;;;35.29;25.32;96632.50;5056252;28;20052;-68
2023/08/21 08:27:55;;;;;;;5.95;3.75;;;;;;;35.23;24.12;96625.19;5056289;28;20045;-68
2023/08/21 08:30:23;;;;;;;6.32;3.30;;;;;;;35.21;23.81;96632.72;5056377;28;20056;-68
2023/08/21 08:32:51;;;;;;;9.00;3.38;;;;;;;35.07;23.75;96623.75;5056522;28;20388;-68
2023/08/21 08:35:19;;;;;;;5.78;2.97;;;;;;;35.14;23.27;96630.00;5056166;28;20041;-68
2023/08/21 08:37:47;;;;;;;8.88;3.50;;;;;;;35.48;23.60;96619.00;5056128;28;20045;-68
2023/08/21 08:40:14;;;;;;;5.35;3.20;;;;;;;35.86;23.30;96630.16;5056116;28;20045;-68
2023/08/21 08:42:42;;;;;;;4.88;3.03;;;;;;;35.46;22.73;96623.84;5055934;28;20480;-68
2023/08/21 08:45:09;;;;;;;9.18;2.92;;;;;;;35.26;23.18;96629.34;5055908;28;20041;-68
2023/08/21 08:47:37;;;;;;;8.55;3.28;;;;;;;35.39;22.26;96629.31;5055935;28;20476;-68
2023/08/21 08:50:06;;;;;;;4.72;2.95;;;;;;;35.31;21.65;96624.13;5055865;28;20057;-68
2023/08/21 08:52:37;;;;;;;3.92;3.08;;;;;;;35.28;22.26;96622.66;5055949;28;20049;-68
2023/08/21 08:55:06;;;;;;;6.72;3.28;;;;;;;35.01;22.64;96625.44;5055960;28;20095;-68
2023/08/21 08:57:35;;;;;;;6.47;2.47;;;;;;;34.81;22.51;96620.03;5055782;28;20107;-67
2023/08/21 09:00:04;;;;;;;10.48;3.05;;;;;;;34.92;22.42;96613.13;5055681;28;20052;-68
2023/08/21 09:02:31;;;;;;;4.50;2.85;;;;;;;34.86;22.22;96625.69;5055768;28;20044;-68
2023/08/21 09:04:59;;;;;;;8.85;2.70;;;;;;;34.83;21.81;96628.81;5055612;28;20465;-68
2023/08/21 09:07:27;;;;;;;6.72;2.65;;;;;;;34.81;21.94;96620.03;5055618;28;20519;-67
2023/08/21 09:09:56;;;;;;;7.25;3.20;;;;;;;35.16;22.29;96611.59;5055364;28;20049;-67
2023/08/21 09:12:24;;;;;;;6.82;2.75;;;;;;;35.44;22.13;96606.91;5055470;28;20474;-67
2023/08/21 09:14:51;;;;;;;10.18;3.20;;;;;;;35.71;21.25;96612.25;5055424;28;20049;-67
2023/08/21 09:17:18;;;;;;;9.10;3.45;;;;;;;35.96;21.73;96614.19;5055304;28;20084;-68
2023/08/21 09:19:46;;;;;;;12.63;3.10;;;;;;;35.90;21.73;96615.03;5054991;28;20519;-68
2023/08/21 09:22:15;;;;;;;10.57;3.20;;;;;;;35.94;21.17;96605.41;5055172;28;20045;-67
2023/08/21 09:25:06;;;;;;;12.18;2.55;;;;;;;36.03;21.84;96609.50;5055141;28;20102;-68
2023/08/21 09:27:35;;;;;;;11.98;2.78;;;;;;;35.97;20.96;96615.88;5055131;28;20049;-68
2023/08/21 09:30:03;;;;;;;6.72;3.00;;;;;;;35.87;21.45;96599.16;5054939;28;20053;-67
2023/08/21 09:32:31;;;;;;;8.13;3.50;;;;;;;35.85;21.85;96598.56;5054366;28;20079;-67
2023/08/21 09:34:58;;;;;;;6.53;3.13;;;;;;;35.92;21.60;96585.75;5054971;28;20148;-67
2023/08/21 09:37:31;;;;;;;12.25;2.97;;;;;;;36.10;21.37;96595.88;5055122;28;20044;-68
2023/08/21 09:40:07;;;;;;;6.05;3.30;;;;;;;36.16;21.79;96596.88;5054892;28;20044;-67
2023/08/21 09:42:36;;;;;;;6.63;2.60;;;;;;;35.98;20.63;96590.31;5054865;28;20041;-67
2023/08/21 09:45:05;;;;;;;8.02;2.83;;;;;;;35.60;20.56;96597.41;5054856;28;20128;-68
2023/08/21 09:47:33;;;;;;;9.88;2.88;;;;;;;35.31;21.32;96577.06;5054766;28;20132;-67
2023/08/21 09:50:01;;;;;;;13.75;2.70;;;;;;;35.34;20.26;96582.94;5054617;28;20045;-68
2023/08/21 09:52:28;;;;;;;8.15;3.53;;;;;;;35.33;20.71;96588.59;5054645;28;20495;-67
2023/08/21 09:54:57;;;;;;;6.18;2.65;;;;;;;35.39;21.15;96588.53;5054589;28;20049;-67
2023/08/21 09:57:28;;;;;;;9.50;3.20;;;;;;;35.46;20.52;96591.22;5054591;28;20041;-67
2023/08/21 09:59:55;;;;;;;8.93;3.08;;;;;;;35.56;20.53;96587.19;5054635;28;20056;-67
2023/08/21 10:02:24;;;;;;;10.15;2.70;;;;;;;35.49;20.24;96590.81;5054563;28;20044;-68
2023/08/21 10:04:53;;;;;;;12.73;3.40;;;;;;;35.56;20.99;96573.59;5054432;28;20049;-67
2023/08/21 10:07:25;;;;;;;8.82;2.58;;;;;;;35.63;21.23;96577.94;5054380;28;20056;-67
2023/08/21 10:09:53;;;;;;;9.63;3.00;;;;;;;35.42;21.81;96568.22;5054573;28;20111;-67
2023/08/21 10:12:21;;;;;;;6.45;2.80;;;;;;;35.56;21.88;96569.00;5054204;28;20087;-67
2023/08/21 10:14:50;;;;;;;6.38;3.13;;;;;;;35.54;22.18;96577.38;5054244;28;20080;-67
2023/08/21 10:17:18;;;;;;;5.82;2.65;;;;;;;35.29;21.53;96570.00;5054171;28;20132;-68
2023/08/21 10:19:53;;;;;;;7.47;3.00;;;;;;;35.42;22.15;96581.81;5054050;28;20510;-67
2023/08/21 10:22:44;;;;;;;8.80;3.13;;;;;;;35.63;22.79;96560.78;5054196;28;20091;-68
2023/08/21 10:25:20;;;;;;;9.45;3.05;;;;;;;35.75;22.64;96569.97;5054161;28;20056;-68
2023/08/21 10:27:48;;;;;;;8.07;3.13;;;;;;;36.01;22.34;96562.66;5054101;28;20132;-68
2023/08/21 10:30:22;;;;;;;7.60;3.20;;;;;;;36.14;21.46;96566.31;5053919;28;20056;-68
2023/08/21 10:32:51;;;;;;;9.00;3.38;;;;;;;36.05;21.33;96554.88;5053877;28;20080;-68
2023/08/21 10:35:21;;;;;;;7.15;3.10;;;;;;;35.96;21.66;96554.31;5053760;28;20132;-68
2023/08/21 10:38:07;;;;;;;;;;;;;;;36.12;20.75;96552.13;5054203;28;20049;-68
2023/08/21 10:40:35;;;;;;;10.90;3.50;;;;;;;35.99;20.75;96542.19;5053742;28;20007;-68
2023/08/21 10:43:03;;;;;;;6.65;2.95;;;;;;;36.04;20.63;96558.66;5053702;28;20052;-68
2023/08/21 10:45:57;;;;;;;8.30;2.92;;;;;;;36.14;21.53;96560.88;5053682;28;20049;-68
2023/08/21 10:48:26;;;;;;;7.75;3.00;;;;;;;35.71;20.62;96548.84;5053520;28;20128;-68
2023/08/21 10:50:56;;;;;;;6.80;3.47;;;;;;;35.51;22.52;96547.06;5053470;28;20053;-68
2023/08/21 10:53:25;;;;;;;8.23;3.15;;;;;;;35.83;22.38;96551.69;5053505;28;20075;-68
2023/08/21 10:55:55;;;;;;;7.57;2.97;;;;;;;35.96;20.68;96545.34;5053343;28;20049;-68
2023/08/21 10:58:23;;;;;;;10.95;3.25;;;;;;;35.81;21.18;96546.47;5053476;28;20144;-68
2023/08/21 11:00:59;;;;;;;7.40;3.13;;;;;;;35.87;22.12;96552.91;5053420;28;20487;-68
2023/08/21 11:03:27;;;;;;;4.75;2.75;;;;;;;35.34;21.96;96550.31;5053401;28;20582;-68
2023/08/21 11:06:05;;;;;;;3.90;2.70;;;;;;;35.13;22.25;96546.84;5053271;28;20049;-68
2023/08/21 11:08:34;;;;;;;6.78;3.10;;;;;;;35.23;22.15;96556.41;5053273;28;20127;-69
2023/08/21 11:11:03;;;;;;;8.75;2.78;;;;;;;35.08;21.80;96545.78;5053322;28;20089;-68
2023/08/21 11:13:30;;;;;;;7.88;2.95;;;;;;;35.12;22.13;96545.16;5053197;28;20041;-68
2023/08/21 11:16:04;;;;;;;11.23;3.55;;;;;;;35.21;21.87;96550.38;5053378;28;20060;-68
2023/08/21 11:18:33;;;;;;;7.07;2.95;;;;;;;35.26;21.43;96545.13;5053301;28;20091;-68
2023/08/21 11:21:08;;;;;;;7.70;3.13;;;;;;;35.43;22.57;96553.63;5053000;28;20052;-68
2023/08/21 11:23:40;;;;;;;7.45;3.10;;;;;;;35.48;22.29;96544.81;5053106;28;20388;-68
2023/08/21 11:26:11;;;;;;;4.57;3.10;;;;;;;35.65;22.49;96545.09;5053143;28;20056;-68
2023/08/21 11:28:41;;;;;;;4.75;2.70;;;;;;;35.34;22.41;96553.03;5053035;28;20045;-68
2023/08/21 11:31:12;;;;;;;9.45;3.33;;;;;;;35.11;22.98;96548.06;5052824;28;20114;-68
2023/08/21 11:33:40;;;;;;;7.20;3.53;;;;;;;35.16;22.16;96542.84;5053001;28;20052;-67
2023/08/21 11:36:11;;;;;;;8.02;3.20;;;;;;;35.37;22.17;96551.75;5052886;28;20489;-68